createdAt,value
2018-12-09T00:01:34.567Z,7.67
2018-12-09T00:04:03.059Z,7.70
2018-12-09T00:06:31.530Z,7.73
2018-12-09T00:09:00.068Z,7.79
2018-12-09T00:11:29.212Z,7.90
2018-12-09T00:13:57.663Z,7.89
2018-12-09T00:16:26.167Z,7.92
2018-12-09T00:18:55.498Z,7.91
2018-12-09T00:21:24.078Z,7.97
2018-12-09T00:23:52.560Z,8.00
2018-12-09T00:26:21.040Z,7.99
2018-12-09T00:28:49.544Z,7.98
2018-12-09T00:31:18.058Z,7.99
2018-12-09T00:33:46.731Z,8.04
2018-12-09T00:36:15.238Z,8.06
2018-12-09T00:38:43.795Z,8.08
2018-12-09T00:41:12.332Z,8.06
2018-12-09T00:43:40.855Z,8.05
2018-12-09T00:46:09.319Z,8.03
2018-12-09T00:48:37.800Z,7.97
2018-12-09T00:51:06.336Z,7.97
2018-12-09T00:53:34.963Z,7.98
2018-12-09T00:56:03.419Z,7.95
2018-12-09T00:58:31.891Z,7.93
2018-12-09T01:01:00.366Z,7.90
2018-12-09T01:03:29.754Z,7.92
2018-12-09T01:05:58.237Z,7.89
2018-12-09T01:08:27.610Z,7.91
2018-12-09T01:10:56.067Z,7.90
2018-12-09T01:13:24.892Z,7.87
2018-12-09T01:15:53.388Z,7.85
2018-12-09T01:18:21.940Z,7.87
2018-12-09T01:20:50.467Z,7.83
2018-12-09T01:23:18.952Z,7.86
2018-12-09T01:25:47.605Z,7.84
2018-12-09T01:28:16.113Z,7.85
2018-12-09T01:30:44.679Z,7.92
2018-12-09T01:33:13.175Z,7.90
2018-12-09T01:35:41.682Z,7.90
2018-12-09T01:38:10.256Z,7.91
2018-12-09T01:40:44.687Z,7.88
2018-12-09T01:43:13.170Z,7.91
2018-12-09T01:45:42.539Z,7.89
2018-12-09T01:48:11.597Z,7.92
2018-12-09T01:50:40.098Z,7.90
2018-12-09T01:53:19.727Z,7.89
2018-12-09T01:55:48.664Z,7.90
2018-12-09T01:58:17.204Z,7.92
2018-12-09T02:00:45.775Z,7.99
2018-12-09T02:03:14.672Z,8.02
2018-12-09T02:05:43.241Z,7.99
2018-12-09T02:08:18.260Z,8.03
2018-12-09T02:10:46.932Z,8.04
2018-12-09T02:13:15.685Z,8.16
2018-12-09T02:15:44.180Z,8.19
2018-12-09T02:18:14.116Z,8.17
2018-12-09T02:20:42.659Z,8.16
2018-12-09T02:23:11.531Z,8.18
2018-12-09T02:25:40.144Z,8.14
2018-12-09T02:28:08.603Z,8.19
2018-12-09T02:30:37.153Z,8.26
2018-12-09T02:33:05.919Z,8.26
2018-12-09T02:35:41.591Z,8.26
2018-12-09T02:38:10.107Z,8.15
2018-12-09T02:40:38.839Z,8.08
2018-12-09T02:43:07.376Z,8.03
2018-12-09T02:45:35.946Z,8.06
2018-12-09T02:48:05.160Z,8.06
2018-12-09T02:50:33.666Z,8.05
2018-12-09T02:53:03.510Z,8.08
2018-12-09T02:55:32.446Z,8.10
2018-12-09T02:58:01.112Z,8.09
2018-12-09T03:00:29.592Z,8.05
2018-12-09T03:02:58.666Z,8.09
2018-12-09T03:05:27.131Z,8.17
2018-12-09T03:07:55.729Z,8.17
2018-12-09T03:10:24.240Z,8.07
2018-12-09T03:12:52.749Z,8.06
2018-12-09T03:15:21.790Z,8.13
2018-12-09T03:17:50.746Z,8.07
2018-12-09T03:20:19.288Z,8.04
2018-12-09T03:22:47.769Z,8.08
2018-12-09T03:25:16.307Z,8.05
2018-12-09T03:27:44.949Z,7.97
2018-12-09T03:30:13.705Z,7.98
2018-12-09T03:32:42.233Z,7.98
2018-12-09T03:35:11.586Z,8.00
2018-12-09T03:37:43.039Z,8.03
2018-12-09T03:40:12.641Z,8.04
2018-12-09T03:42:41.164Z,8.09
2018-12-09T03:45:09.815Z,8.22
2018-12-09T03:47:38.406Z,8.12
2018-12-09T03:50:08.282Z,8.09
2018-12-09T03:52:37.412Z,8.08
2018-12-09T03:55:06.751Z,8.03
2018-12-09T03:57:35.308Z,7.99
2018-12-09T04:00:04.094Z,7.99
2018-12-09T04:02:32.927Z,8.01
2018-12-09T04:05:01.552Z,7.94
2018-12-09T04:07:30.016Z,7.99
2018-12-09T04:09:58.515Z,8.01
2018-12-09T04:12:27.011Z,8.06
2018-12-09T04:14:55.488Z,8.07
2018-12-09T04:17:23.961Z,8.10
2018-12-09T04:19:52.971Z,8.16
2018-12-09T04:22:22.155Z,8.13
2018-12-09T04:24:51.720Z,8.11
2018-12-09T04:27:20.375Z,8.12
2018-12-09T04:29:48.891Z,8.18
2018-12-09T04:32:17.864Z,8.15
2018-12-09T04:34:46.385Z,8.12
2018-12-09T04:37:15.558Z,8.08
2018-12-09T04:39:44.148Z,8.05
2018-12-09T04:42:12.647Z,8.09
2018-12-09T04:44:41.196Z,8.14
2018-12-09T04:47:09.891Z,8.09
2018-12-09T04:49:38.348Z,8.01
2018-12-09T04:52:06.872Z,7.91
2018-12-09T04:54:35.600Z,7.87
2018-12-09T04:57:04.724Z,7.80
2018-12-09T04:59:35.737Z,7.77
2018-12-09T05:02:04.304Z,7.73
2018-12-09T05:04:32.839Z,7.77
2018-12-09T05:07:02.263Z,7.72
2018-12-09T05:09:30.732Z,7.72
2018-12-09T05:11:59.220Z,7.74
2018-12-09T05:14:27.785Z,7.73
2018-12-09T05:16:56.248Z,7.76
2018-12-09T05:19:24.772Z,7.75
2018-12-09T05:21:54.324Z,7.76
2018-12-09T05:24:22.932Z,7.75
2018-12-09T05:26:51.463Z,7.72
2018-12-09T05:29:20.012Z,7.71
2018-12-09T05:31:48.531Z,7.73
2018-12-09T05:34:23.520Z,7.77
2018-12-09T05:36:53.016Z,7.75
2018-12-09T05:39:22.083Z,7.79
2018-12-09T05:41:50.669Z,7.73
2018-12-09T05:44:19.666Z,7.78
2018-12-09T05:46:48.127Z,7.79
2018-12-09T05:49:16.676Z,7.89
2018-12-09T05:51:45.175Z,7.82
2018-12-09T05:54:14.450Z,7.82
2018-12-09T05:56:43.759Z,7.83
2018-12-09T05:59:12.479Z,7.80
2018-12-09T06:01:40.948Z,7.80
2018-12-09T06:04:09.507Z,7.79
2018-12-09T06:06:38.062Z,7.81
2018-12-09T06:09:06.917Z,7.86
2018-12-09T06:11:36.405Z,7.84
2018-12-09T06:14:04.964Z,7.89
2018-12-09T06:16:33.462Z,7.91
2018-12-09T06:19:02.360Z,7.92
2018-12-09T06:21:31.018Z,7.91
2018-12-09T06:24:00.232Z,7.94
2018-12-09T06:26:28.901Z,7.95
2018-12-09T06:28:58.052Z,7.96
2018-12-09T06:31:27.115Z,8.00
2018-12-09T06:33:55.653Z,7.16
2018-12-09T06:36:24.117Z,6.88
2018-12-09T06:38:52.609Z,6.69
2018-12-09T06:41:21.705Z,6.64
2018-12-09T06:43:50.193Z,6.48
2018-12-09T06:46:18.688Z,6.37
2018-12-09T06:48:47.187Z,6.34
2018-12-09T06:51:15.657Z,6.34
2018-12-09T06:53:44.291Z,6.32
2018-12-09T06:56:13.097Z,6.37
2018-12-09T06:58:41.559Z,6.37
2018-12-09T07:01:10.068Z,6.36
2018-12-09T07:03:39.206Z,6.40
2018-12-09T07:06:07.755Z,6.39
2018-12-09T07:08:36.255Z,6.33
2018-12-09T07:11:04.764Z,6.32
2018-12-09T07:13:33.256Z,6.40
2018-12-09T07:16:01.933Z,6.46
2018-12-09T07:18:30.440Z,6.43
2018-12-09T07:20:58.915Z,6.42
2018-12-09T07:23:27.567Z,6.42
2018-12-09T07:25:56.193Z,6.39
2018-12-09T07:28:24.688Z,6.37
2018-12-09T07:30:53.296Z,6.32
2018-12-09T07:33:21.817Z,6.35
2018-12-09T07:35:50.865Z,6.33
2018-12-09T07:38:19.338Z,6.33
2018-12-09T07:40:47.824Z,6.36
2018-12-09T07:43:17.598Z,6.37
2018-12-09T07:45:46.172Z,6.35
2018-12-09T07:48:14.721Z,6.32
2018-12-09T07:50:43.273Z,6.33
2018-12-09T07:53:11.860Z,6.38
2018-12-09T07:55:41.705Z,6.38
2018-12-09T07:58:10.484Z,6.40
2018-12-09T08:00:39.347Z,6.41
2018-12-09T08:03:07.947Z,6.43
2018-12-09T08:05:36.671Z,6.44
2018-12-09T08:08:05.724Z,6.39
2018-12-09T08:10:35.389Z,6.41
2018-12-09T08:13:04.763Z,6.40
2018-12-09T08:15:33.819Z,6.49
2018-12-09T08:18:02.340Z,6.55
2018-12-09T08:20:30.963Z,6.56
2018-12-09T08:22:59.499Z,6.61
2018-12-09T08:25:27.957Z,6.65
2018-12-09T08:27:56.628Z,6.66
2018-12-09T08:30:25.221Z,6.71
2018-12-09T08:32:53.793Z,6.79
2018-12-09T08:35:22.341Z,6.81
2018-12-09T08:37:51.053Z,6.82
2018-12-09T08:40:19.762Z,6.87
2018-12-09T08:42:48.235Z,6.94
2018-12-09T08:45:16.928Z,6.96
2018-12-09T08:47:45.539Z,7.05
2018-12-09T08:50:14.302Z,7.03
2018-12-09T08:52:43.635Z,7.00
2018-12-09T08:55:12.263Z,7.05
2018-12-09T08:57:41.501Z,7.08
2018-12-09T09:00:10.616Z,7.02
2018-12-09T09:02:39.084Z,7.04
2018-12-09T09:05:08.535Z,7.11
2018-12-09T09:07:37.027Z,7.06
2018-12-09T09:10:06.259Z,7.07
2018-12-09T09:12:35.032Z,7.01
2018-12-09T09:15:03.497Z,7.07
2018-12-09T09:17:31.976Z,7.09
2018-12-09T09:20:00.552Z,7.08
2018-12-09T09:22:29.037Z,7.19
2018-12-09T09:24:57.516Z,7.32
2018-12-09T09:27:26.171Z,7.37
2018-12-09T09:29:54.640Z,7.39
2018-12-09T09:32:23.161Z,7.46
2018-12-09T09:34:51.616Z,7.34
2018-12-09T09:37:20.744Z,7.18
2018-12-09T09:39:50.031Z,7.18
2018-12-09T09:42:18.534Z,7.23
2018-12-09T09:44:47.369Z,7.18
2018-12-09T09:47:15.845Z,7.10
2018-12-09T09:49:44.372Z,7.05
2018-12-09T09:52:12.952Z,7.06
2018-12-09T09:54:41.461Z,7.09
2018-12-09T09:57:09.966Z,7.15
2018-12-09T09:59:38.489Z,7.23
2018-12-09T10:02:07.020Z,7.30
2018-12-09T10:04:35.608Z,7.27
2018-12-09T10:07:04.157Z,7.20
2018-12-09T10:09:33.127Z,7.21
2018-12-09T10:12:01.827Z,7.23
2018-12-09T10:14:30.719Z,7.29
2018-12-09T10:17:00.039Z,7.24
2018-12-09T10:19:28.562Z,7.22
2018-12-09T10:21:57.120Z,7.23
2018-12-09T10:24:25.633Z,7.27
2018-12-09T10:26:54.120Z,7.28
2018-12-09T10:29:22.736Z,7.31
2018-12-09T10:31:51.269Z,7.37
2018-12-09T10:34:19.755Z,7.39
2018-12-09T10:36:48.242Z,7.48
2018-12-09T10:39:17.435Z,7.48
2018-12-09T10:41:46.022Z,7.64
2018-12-09T10:44:14.553Z,7.71
2018-12-09T10:46:43.105Z,7.78
2018-12-09T10:49:11.579Z,7.85
2018-12-09T10:51:40.064Z,7.91
2018-12-09T10:54:08.634Z,7.96
2018-12-09T10:56:37.116Z,7.89
2018-12-09T10:59:05.600Z,8.07
2018-12-09T11:01:46.279Z,8.38
2018-12-09T11:04:14.808Z,8.63
2018-12-09T11:06:43.311Z,8.78
2018-12-09T11:09:12.493Z,8.76
2018-12-09T11:11:41.026Z,8.64
2018-12-09T11:14:09.551Z,8.42
2018-12-09T11:16:38.019Z,8.33
2018-12-09T11:19:06.563Z,8.21
2018-12-09T11:21:35.100Z,8.19
2018-12-09T11:24:03.556Z,8.31
2018-12-09T11:26:32.410Z,8.43
2018-12-09T11:29:01.234Z,8.55
2018-12-09T11:31:29.819Z,8.68
2018-12-09T11:33:59.099Z,8.84
2018-12-09T11:36:27.634Z,8.72
2018-12-09T11:38:56.232Z,8.70
2018-12-09T11:41:24.762Z,8.80
2018-12-09T11:43:53.784Z,8.88
2018-12-09T11:46:22.375Z,8.89
2018-12-09T11:48:50.900Z,8.89
2018-12-09T11:51:20.248Z,8.99
2018-12-09T11:53:49.263Z,8.85
2018-12-09T11:56:19.001Z,8.80
2018-12-09T11:58:47.625Z,8.76
2018-12-09T12:01:16.165Z,8.82
2018-12-09T12:03:44.685Z,8.81
2018-12-09T12:06:13.194Z,8.76
2018-12-09T12:08:41.783Z,8.88
2018-12-09T12:11:10.247Z,8.96
2018-12-09T12:13:38.737Z,8.95
2018-12-09T12:16:07.197Z,9.03
2018-12-09T12:18:36.483Z,8.99
2018-12-09T12:21:05.327Z,9.03
2018-12-09T12:23:33.788Z,9.07
2018-12-09T12:26:02.595Z,9.08
2018-12-09T12:28:31.432Z,9.05
2018-12-09T12:31:00.081Z,9.05
2018-12-09T12:33:28.565Z,9.14
2018-12-09T12:35:57.034Z,9.13
2018-12-09T12:38:26.243Z,9.09
2018-12-09T12:40:54.719Z,9.16
2018-12-09T12:43:23.329Z,9.35
2018-12-09T12:45:51.969Z,9.25
2018-12-09T12:48:20.483Z,9.06
2018-12-09T12:50:49.080Z,9.06
2018-12-09T12:53:17.591Z,8.90
2018-12-09T12:55:46.440Z,9.02
2018-12-09T12:58:15.103Z,9.07
2018-12-09T13:00:43.590Z,9.07
2018-12-09T13:03:12.209Z,9.12
2018-12-09T13:05:40.703Z,9.05
2018-12-09T13:08:10.113Z,9.03
2018-12-09T13:10:38.733Z,9.18
2018-12-09T13:13:07.185Z,9.30
2018-12-09T13:15:35.675Z,9.37
2018-12-09T13:18:04.178Z,9.64
2018-12-09T13:20:32.858Z,9.60
2018-12-09T13:23:01.350Z,9.47
2018-12-09T13:25:29.860Z,8.50
2018-12-09T13:27:58.441Z,8.01
2018-12-09T13:30:27.137Z,7.91
2018-12-09T13:32:55.975Z,7.80
2018-12-09T13:35:24.641Z,7.66
2018-12-09T13:37:54.555Z,7.45
2018-12-09T13:40:24.403Z,7.38
2018-12-09T13:42:52.996Z,7.39
2018-12-09T13:45:22.035Z,7.42
2018-12-09T13:47:50.911Z,7.46
2018-12-09T13:50:19.545Z,7.40
2018-12-09T13:52:48.089Z,7.49
2018-12-09T13:55:16.751Z,7.58
2018-12-09T13:57:45.597Z,7.89
2018-12-09T14:00:18.333Z,8.03
2018-12-09T14:02:46.929Z,8.16
2018-12-09T14:05:15.728Z,8.21
2018-12-09T14:07:44.365Z,8.32
2018-12-09T14:10:13.554Z,8.37
2018-12-09T14:12:42.204Z,8.24
2018-12-09T14:15:11.040Z,8.06
2018-12-09T14:17:39.848Z,8.03
2018-12-09T14:20:09.866Z,7.97
2018-12-09T14:22:38.487Z,7.93
2018-12-09T14:25:08.011Z,7.93
2018-12-09T14:27:36.676Z,7.94
2018-12-09T14:30:06.533Z,7.92
2018-12-09T14:32:34.991Z,7.93
2018-12-09T14:35:04.591Z,7.99
2018-12-09T14:37:33.693Z,8.01
2018-12-09T14:40:02.491Z,7.97
2018-12-09T14:42:31.170Z,7.95
2018-12-09T14:44:59.736Z,8.01
2018-12-09T14:47:28.378Z,8.06
2018-12-09T14:49:57.365Z,7.95
2018-12-09T14:52:25.918Z,7.98
2018-12-09T14:54:54.428Z,7.79
2018-12-09T14:57:22.951Z,7.70
2018-12-09T14:59:51.442Z,7.57
2018-12-09T15:02:20.778Z,7.46
2018-12-09T15:04:49.367Z,7.38
2018-12-09T15:07:17.852Z,7.27
2018-12-09T15:09:47.206Z,7.21
2018-12-09T15:12:16.209Z,7.14
2018-12-09T15:14:44.696Z,7.06
2018-12-09T15:17:13.460Z,7.02
2018-12-09T15:19:42.892Z,7.03
2018-12-09T15:22:12.146Z,6.86
2018-12-09T15:24:41.527Z,6.76
2018-12-09T15:27:10.473Z,6.73
2018-12-09T15:29:39.619Z,6.72
2018-12-09T15:32:08.076Z,6.61
2018-12-09T15:34:36.609Z,6.51
2018-12-09T15:37:05.119Z,6.48
2018-12-09T15:39:33.689Z,6.38
2018-12-09T15:42:02.360Z,6.32
2018-12-09T15:44:31.841Z,6.24
2018-12-09T15:47:00.476Z,6.23
2018-12-09T15:49:29.093Z,6.27
2018-12-09T15:51:57.556Z,6.22
2018-12-09T15:54:26.650Z,6.30
2018-12-09T15:56:55.503Z,6.32
2018-12-09T15:59:31.833Z,6.39
2018-12-09T16:01:54.899Z,6.38
2018-12-09T16:04:23.339Z,6.29
2018-12-09T16:06:52.098Z,6.25
2018-12-09T16:09:20.771Z,6.18
2018-12-09T16:11:50.070Z,6.25
2018-12-09T16:14:19.582Z,6.26
2018-12-09T16:16:49.804Z,6.16
2018-12-09T16:19:19.185Z,6.16
2018-12-09T16:21:47.756Z,6.20
2018-12-09T16:24:16.401Z,6.18
2018-12-09T16:26:45.588Z,6.36
2018-12-09T16:29:14.180Z,6.46
2018-12-09T16:31:42.645Z,6.51
2018-12-09T16:34:11.235Z,6.56
2018-12-09T16:36:39.735Z,6.66
2018-12-09T16:39:08.612Z,6.59
2018-12-09T16:41:37.271Z,6.66
2018-12-09T16:44:07.218Z,6.52
2018-12-09T16:46:35.754Z,6.59
2018-12-09T16:52:07.157Z,6.36
2018-12-09T16:54:35.764Z,6.32
2018-12-09T16:57:04.266Z,6.40
2018-12-09T16:59:32.861Z,6.39
2018-12-09T17:02:01.323Z,6.40
2018-12-09T17:04:31.072Z,6.26
2018-12-09T17:07:00.529Z,6.23
2018-12-09T17:09:29.211Z,6.13
2018-12-09T17:11:57.809Z,6.08
2018-12-09T17:14:26.301Z,6.05
2018-12-09T17:16:54.868Z,6.09
2018-12-09T17:19:23.702Z,6.17
2018-12-09T17:21:52.327Z,6.15
2018-12-09T17:24:20.853Z,6.19
2018-12-09T17:26:49.384Z,6.18
2018-12-09T17:29:17.931Z,6.07
2018-12-09T17:31:46.480Z,5.98
2018-12-09T17:34:15.061Z,5.85
2018-12-09T17:36:43.852Z,5.89
2018-12-09T17:39:12.395Z,5.96
2018-12-09T17:41:41.454Z,5.93
2018-12-09T17:44:10.072Z,5.91
2018-12-09T17:46:38.637Z,5.83
2018-12-09T17:49:07.385Z,5.69
2018-12-09T17:51:36.311Z,5.71
2018-12-09T17:54:04.834Z,5.74
2018-12-09T17:56:33.602Z,5.77
2018-12-09T17:59:02.088Z,5.71
2018-12-09T18:01:30.632Z,5.65
2018-12-09T18:04:00.657Z,5.47
2018-12-09T18:06:29.410Z,5.55
2018-12-09T18:08:57.952Z,5.50
2018-12-09T18:11:26.475Z,5.47
2018-12-09T18:13:54.972Z,5.40
2018-12-09T18:16:23.484Z,5.42
2018-12-09T18:18:52.153Z,5.55
2018-12-09T18:21:20.755Z,5.62
2018-12-09T18:23:49.293Z,5.67
2018-12-09T18:26:17.802Z,5.64
2018-12-09T18:28:46.263Z,5.65
2018-12-09T18:31:14.946Z,5.75
2018-12-09T18:33:43.719Z,5.72
2018-12-09T18:36:12.640Z,5.73
2018-12-09T18:38:41.172Z,5.77
2018-12-09T18:41:09.693Z,5.76
2018-12-09T18:43:38.184Z,5.80
2018-12-09T18:47:10.742Z,5.72
2018-12-09T18:49:40.129Z,5.65
2018-12-09T18:52:08.653Z,5.83
2018-12-09T18:54:37.355Z,5.97
2018-12-09T18:57:05.999Z,6.10
2018-12-09T18:59:35.050Z,6.00
2018-12-09T19:02:04.744Z,6.03
2018-12-09T19:04:33.280Z,5.91
2018-12-09T19:07:01.992Z,6.00
2018-12-09T19:09:30.552Z,6.02
2018-12-09T19:11:59.181Z,5.87
2018-12-09T19:14:27.872Z,5.81
2018-12-09T19:16:56.906Z,5.71
2018-12-09T19:19:25.488Z,5.57
2018-12-09T19:21:54.087Z,5.67
2018-12-09T19:24:23.004Z,5.54
2018-12-09T19:26:51.700Z,5.43
2018-12-09T19:29:20.476Z,5.38
2018-12-09T19:31:49.030Z,5.28
2018-12-09T19:34:18.829Z,5.16
2018-12-09T19:36:47.314Z,5.17
2018-12-09T19:39:16.084Z,5.06
2018-12-09T19:41:44.597Z,5.02
2018-12-09T19:44:13.133Z,5.02
2018-12-09T19:46:41.642Z,5.17
2018-12-09T19:49:10.123Z,5.22
2018-12-09T19:51:38.609Z,5.10
2018-12-09T19:54:07.297Z,5.10
2018-12-09T19:56:35.868Z,4.98
2018-12-09T19:59:04.489Z,4.93
2018-12-09T20:01:33.212Z,4.92
2018-12-09T20:04:01.928Z,5.05
2018-12-09T20:06:30.573Z,5.25
2018-12-09T20:08:59.111Z,5.16
2018-12-09T20:11:27.747Z,5.04
2018-12-09T20:13:56.244Z,4.96
2018-12-09T20:16:24.875Z,5.01
2018-12-09T20:18:53.500Z,4.98
2018-12-09T20:21:22.307Z,5.12
2018-12-09T20:23:50.934Z,5.23
2018-12-09T20:26:19.474Z,5.16
2018-12-09T20:28:48.123Z,5.10
2018-12-09T20:31:16.679Z,5.27
2018-12-09T20:33:45.299Z,5.24
2018-12-09T20:36:14.320Z,5.07
2018-12-09T20:38:43.083Z,5.03
2018-12-09T20:41:12.416Z,4.96
2018-12-09T20:43:40.996Z,4.95
2018-12-09T20:46:09.577Z,4.97
2018-12-09T20:48:38.705Z,4.82
2018-12-09T20:51:07.285Z,4.69
2018-12-09T20:53:37.031Z,4.60
2018-12-09T20:56:05.532Z,4.50
2018-12-09T20:58:34.444Z,4.56
2018-12-09T21:01:02.919Z,4.54
2018-12-09T21:03:31.474Z,4.59
2018-12-09T21:06:00.196Z,4.64
2018-12-09T21:08:28.729Z,4.76
2018-12-09T21:10:57.300Z,4.74
2018-12-09T21:13:25.808Z,4.57
2018-12-09T21:15:54.580Z,4.53
2018-12-09T21:18:23.278Z,4.48
2018-12-09T21:20:51.851Z,4.38
2018-12-09T21:23:20.368Z,4.45
2018-12-09T21:25:49.009Z,4.45
2018-12-09T21:28:17.530Z,4.50
2018-12-09T21:30:46.072Z,4.56
2018-12-09T21:33:14.683Z,4.69
2018-12-09T21:35:43.293Z,4.80
2018-12-09T21:38:11.849Z,4.86
2018-12-09T21:40:40.351Z,4.80
2018-12-09T21:43:08.871Z,4.74
2018-12-09T21:45:37.584Z,4.74
2018-12-09T21:48:06.195Z,4.85
2018-12-09T21:50:34.804Z,4.93
2018-12-09T21:53:03.306Z,5.10
2018-12-09T21:55:31.836Z,5.05
2018-12-09T21:58:00.468Z,4.88
2018-12-09T22:00:28.974Z,4.78
2018-12-09T22:02:57.564Z,4.77
2018-12-09T22:05:26.335Z,4.68
2018-12-09T22:07:54.839Z,4.76
2018-12-09T22:10:23.345Z,4.72
2018-12-09T22:12:52.045Z,4.85
2018-12-09T22:15:20.647Z,4.71
2018-12-09T22:17:49.217Z,4.75
2018-12-09T22:20:17.716Z,4.74
2018-12-09T22:22:46.442Z,4.76
2018-12-09T22:25:14.919Z,4.81
2018-12-09T22:27:43.419Z,4.82
2018-12-09T22:30:12.218Z,4.90
2018-12-09T22:32:40.812Z,4.92
2018-12-09T22:35:09.316Z,5.06
2018-12-09T22:37:37.896Z,5.09
2018-12-09T22:40:07.257Z,5.12
2018-12-09T22:42:35.808Z,5.19
2018-12-09T22:45:04.551Z,5.11
2018-12-09T22:47:33.111Z,5.08
2018-12-09T22:50:01.576Z,5.04
2018-12-09T22:52:30.262Z,4.93
2018-12-09T22:54:58.796Z,4.80
2018-12-09T22:57:27.268Z,4.62
2018-12-09T22:59:55.783Z,4.56
2018-12-09T23:02:29.636Z,4.55
2018-12-09T23:04:58.195Z,4.55
2018-12-09T23:07:31.939Z,4.56
2018-12-09T23:10:00.699Z,4.75
2018-12-09T23:12:29.187Z,4.79
2018-12-09T23:14:57.649Z,4.78
2018-12-09T23:17:26.348Z,4.73
2018-12-09T23:19:54.894Z,4.60
2018-12-09T23:22:23.415Z,4.47
2018-12-09T23:24:51.904Z,4.42
2018-12-09T23:27:20.396Z,4.37
2018-12-09T23:29:48.899Z,4.39
2018-12-09T23:32:17.451Z,4.35
2018-12-09T23:34:46.231Z,4.31
2018-12-09T23:37:14.713Z,4.36
2018-12-09T23:39:43.269Z,4.32
2018-12-09T23:42:11.767Z,4.36
2018-12-09T23:44:40.296Z,4.42
2018-12-09T23:47:08.856Z,4.45
2018-12-09T23:49:37.349Z,4.42
2018-12-09T23:52:06.022Z,4.46
2018-12-09T23:54:34.492Z,4.42
2018-12-09T23:57:03.046Z,4.28
2018-12-09T23:59:31.783Z,4.25
